createdAt,value
2023-02-11T00:01:44.535Z,-2.58
2023-02-11T00:04:12.424Z,-2.56
2023-02-11T00:06:40.426Z,-2.55
2023-02-11T00:09:08.742Z,-2.54
2023-02-11T00:11:36.967Z,-2.55
2023-02-11T00:14:13.583Z,-2.58
2023-02-11T00:16:41.551Z,-2.61
2023-02-11T00:19:09.867Z,-2.62
2023-02-11T00:21:37.795Z,-2.62
2023-02-11T00:24:05.959Z,-2.59
2023-02-11T00:26:35.895Z,-2.55
2023-02-11T00:29:13.789Z,-2.50
2023-02-11T00:31:42.148Z,-2.50
2023-02-11T00:34:10.176Z,-2.52
2023-02-11T00:36:40.264Z,-2.52
2023-02-11T00:39:09.537Z,-2.53
2023-02-11T00:41:38.864Z,-2.54
2023-02-11T00:44:07.194Z,-2.49
2023-02-11T00:46:35.226Z,-2.47
2023-02-11T00:49:03.407Z,-2.48
2023-02-11T00:51:31.343Z,-2.53
2023-02-11T00:53:59.399Z,-2.58
2023-02-11T00:56:27.384Z,-2.61
2023-02-11T00:58:57.485Z,-2.62
2023-02-11T01:01:25.778Z,-2.58
2023-02-11T01:03:53.747Z,-2.59
2023-02-11T01:06:23.762Z,-2.60
2023-02-11T01:08:51.768Z,-2.62
2023-02-11T01:11:21.862Z,-2.63
2023-02-11T01:13:50.418Z,-2.62
2023-02-11T01:16:20.156Z,-2.57
2023-02-11T01:18:48.503Z,-2.54
2023-02-11T01:22:11.577Z,-2.57
2023-02-11T01:24:39.559Z,-2.62
2023-02-11T01:27:08.576Z,-2.66
2023-02-11T01:29:36.586Z,-2.66
2023-02-11T01:32:04.715Z,-2.64
2023-02-11T01:34:32.624Z,-2.64
2023-02-11T01:37:00.982Z,-2.65
2023-02-11T01:39:36.780Z,-2.68
2023-02-11T01:42:06.544Z,-2.70
2023-02-11T01:44:38.212Z,-2.70
2023-02-11T01:47:06.635Z,-2.66
2023-02-11T01:49:43.404Z,-2.63
2023-02-11T01:52:21.718Z,-2.60
2023-02-11T01:55:13.480Z,-2.58
2023-02-11T01:57:45.683Z,-2.61
2023-02-11T02:00:41.839Z,-2.61
2023-02-11T02:03:17.149Z,-2.58
2023-02-11T02:06:29.555Z,-2.50
2023-02-11T02:09:05.149Z,-2.46
2023-02-11T02:11:33.140Z,-2.47
2023-02-11T02:14:01.158Z,-2.48
2023-02-11T02:16:35.047Z,-2.47
2023-02-11T02:19:33.751Z,-2.42
2023-02-11T02:22:14.515Z,-2.38
2023-02-11T02:25:01.275Z,-2.38
2023-02-11T02:27:42.147Z,-2.39
2023-02-11T02:30:42.341Z,-2.38
2023-02-11T02:33:34.645Z,-2.34
2023-02-11T02:36:14.417Z,-2.27
2023-02-11T02:38:56.842Z,-2.27
2023-02-11T02:41:30.654Z,-2.28
2023-02-11T02:43:59.116Z,-2.29
2023-02-11T02:46:31.712Z,-2.28
2023-02-11T02:49:01.782Z,-2.27
2023-02-11T02:51:51.121Z,-2.25
2023-02-11T02:54:28.002Z,-2.22
2023-02-11T02:56:59.630Z,-2.22
2023-02-11T02:59:36.719Z,-2.22
2023-02-11T03:02:19.950Z,-2.24
2023-02-11T03:05:17.770Z,-2.26
2023-02-11T03:08:18.593Z,-2.23
2023-02-11T03:10:51.332Z,-2.16
2023-02-11T03:13:24.646Z,-2.12
2023-02-11T03:15:56.835Z,-2.09
2023-02-11T03:18:29.126Z,-2.07
2023-02-11T03:20:58.606Z,-2.06
2023-02-11T03:23:35.443Z,-2.03
2023-02-11T03:26:27.104Z,-2.00
2023-02-11T03:29:10.609Z,-1.91
2023-02-11T03:31:44.670Z,-1.83
2023-02-11T03:34:23.130Z,-1.76
2023-02-11T03:37:00.143Z,-1.74
2023-02-11T03:39:36.146Z,-1.74
2023-02-11T03:42:08.677Z,-1.75
2023-02-11T03:44:44.636Z,-1.74
2023-02-11T03:47:15.635Z,-1.71
2023-02-11T03:49:48.354Z,-1.69
2023-02-11T03:52:20.578Z,-1.68
2023-02-11T03:54:54.097Z,-1.68
2023-02-11T03:57:22.064Z,-1.67
2023-02-11T04:00:06.735Z,-1.64
2023-02-11T04:02:40.226Z,-1.58
2023-02-11T04:05:16.334Z,-1.57
2023-02-11T04:07:44.349Z,-1.57
2023-02-11T04:10:13.029Z,-1.59
2023-02-11T04:12:41.186Z,-1.64
2023-02-11T04:15:09.841Z,-1.64
2023-02-11T04:17:38.311Z,-1.64
2023-02-11T04:20:06.405Z,-1.67
2023-02-11T04:22:34.437Z,-1.73
2023-02-11T04:25:02.889Z,-1.79
2023-02-11T04:27:30.858Z,-1.83
2023-02-11T04:29:58.986Z,-1.85
2023-02-11T04:32:28.960Z,-1.87
2023-02-11T04:34:56.962Z,-1.88
2023-02-11T04:37:24.987Z,-1.89
2023-02-11T04:39:52.927Z,-1.94
2023-02-11T04:42:20.905Z,-2.01
2023-02-11T04:44:48.809Z,-2.01
2023-02-11T04:47:16.758Z,-1.99
2023-02-11T04:49:44.825Z,-1.98
2023-02-11T04:52:12.839Z,-1.98
2023-02-11T04:54:41.054Z,-2.01
2023-02-11T04:57:09.080Z,-2.00
2023-02-11T04:59:37.070Z,-1.98
2023-02-11T05:02:05.120Z,-1.93
2023-02-11T05:04:33.058Z,-1.88
2023-02-11T05:07:01.017Z,-1.87
2023-02-11T05:09:29.062Z,-1.84
2023-02-11T05:11:56.983Z,-1.83
2023-02-11T05:14:24.862Z,-1.79
2023-02-11T05:16:53.372Z,-1.73
2023-02-11T05:19:21.446Z,-1.70
2023-02-11T05:22:01.639Z,-1.68
2023-02-11T05:24:32.250Z,-1.68
2023-02-11T05:27:00.708Z,-1.67
2023-02-11T05:29:28.816Z,-1.63
2023-02-11T05:31:58.557Z,-1.57
2023-02-11T05:34:26.570Z,-1.51
2023-02-11T05:36:54.616Z,-1.49
2023-02-11T05:39:22.707Z,-1.47
2023-02-11T05:41:50.636Z,-1.45
2023-02-11T05:44:19.088Z,-1.42
2023-02-11T05:46:47.040Z,-1.34
2023-02-11T05:49:17.111Z,-1.30
2023-02-11T05:51:45.040Z,-1.27
2023-02-11T05:54:13.142Z,-1.24
2023-02-11T05:56:43.797Z,-1.23
2023-02-11T05:59:16.428Z,-1.21
2023-02-11T06:01:44.676Z,-1.18
2023-02-11T06:04:12.678Z,-1.10
2023-02-11T06:06:40.664Z,-1.04
2023-02-11T06:09:10.552Z,-0.99
2023-02-11T06:11:39.113Z,-1.03
2023-02-11T06:14:07.174Z,-0.99
2023-02-11T06:16:35.141Z,-0.96
2023-02-11T06:19:03.063Z,-0.91
2023-02-11T06:21:42.870Z,-0.88
2023-02-11T06:24:12.684Z,-0.86
2023-02-11T06:26:40.800Z,-0.86
2023-02-11T06:29:08.901Z,-0.86
2023-02-11T06:31:39.062Z,-0.82
2023-02-11T06:34:09.515Z,-0.78
2023-02-11T06:36:39.990Z,-0.70
2023-02-11T06:39:08.780Z,-0.69
2023-02-11T06:41:36.883Z,-0.67
2023-02-11T06:44:06.347Z,-0.67
2023-02-11T06:46:34.687Z,-0.63
2023-02-11T06:49:03.494Z,-0.62
2023-02-11T06:51:31.763Z,-0.61
2023-02-11T06:53:59.859Z,-0.60
2023-02-11T06:56:27.871Z,-0.60
2023-02-11T06:58:56.710Z,-0.57
2023-02-11T07:01:27.077Z,-0.56
2023-02-11T07:03:55.305Z,-0.54
2023-02-11T07:06:27.971Z,-0.54
2023-02-11T07:08:56.555Z,-0.55
2023-02-11T07:11:27.751Z,-0.52
2023-02-11T07:14:00.562Z,-0.50
2023-02-11T07:16:28.637Z,-0.44
2023-02-11T07:18:56.680Z,-0.46
2023-02-11T07:21:24.673Z,-0.47
2023-02-11T07:23:52.880Z,-0.47
2023-02-11T07:26:23.538Z,-0.44
2023-02-11T07:28:53.015Z,-0.42
2023-02-11T07:31:25.017Z,-0.40
2023-02-11T07:33:55.512Z,-0.39
2023-02-11T07:36:24.214Z,-0.41
2023-02-11T07:38:52.188Z,-0.42
2023-02-11T07:41:22.271Z,-0.41
2023-02-11T07:43:51.031Z,-0.39
2023-02-11T07:46:22.403Z,-0.38
2023-02-11T07:48:51.063Z,-0.37
2023-02-11T07:51:27.821Z,-0.37
2023-02-11T07:53:57.534Z,-0.38
2023-02-11T07:56:27.658Z,-0.29
2023-02-11T07:58:59.955Z,-0.24
2023-02-11T08:01:28.854Z,-0.17
2023-02-11T08:04:00.313Z,-0.16
2023-02-11T08:06:31.794Z,-0.13
2023-02-11T08:09:05.973Z,-0.04
2023-02-11T08:11:34.027Z,0.06
2023-02-11T08:14:02.330Z,0.10
2023-02-11T08:16:33.702Z,0.13
2023-02-11T08:19:11.951Z,0.21
2023-02-11T08:21:40.808Z,0.28
2023-02-11T08:24:10.768Z,0.37
2023-02-11T08:26:39.330Z,0.44
2023-02-11T08:29:11.099Z,0.49
2023-02-11T08:31:42.295Z,0.52
2023-02-11T08:34:12.069Z,0.55
2023-02-11T08:36:41.794Z,0.58
2023-02-11T08:39:19.656Z,0.68
2023-02-11T08:42:02.506Z,0.82
2023-02-11T08:44:30.634Z,1.04
2023-02-11T08:46:58.723Z,1.16
2023-02-11T08:49:26.788Z,1.19
2023-02-11T08:51:56.402Z,1.19
2023-02-11T08:54:24.459Z,1.13
2023-02-11T08:56:52.766Z,1.16
2023-02-11T08:59:20.780Z,1.20
2023-02-11T09:01:48.908Z,1.27
2023-02-11T09:04:17.515Z,1.35
2023-02-11T09:06:46.136Z,1.43
2023-02-11T09:09:15.624Z,1.49
2023-02-11T09:11:45.248Z,1.47
2023-02-11T09:14:18.753Z,1.46
2023-02-11T09:16:46.911Z,1.44
2023-02-11T09:19:14.905Z,1.42
2023-02-11T09:21:43.089Z,1.46
2023-02-11T09:24:11.670Z,1.50
2023-02-11T09:26:43.365Z,1.54
2023-02-11T09:29:11.642Z,1.58
2023-02-11T09:31:39.751Z,1.64
2023-02-11T09:34:07.889Z,1.67
2023-02-11T09:36:38.776Z,1.64
2023-02-11T09:39:11.933Z,1.57
2023-02-11T09:41:48.618Z,1.55
2023-02-11T09:44:21.322Z,1.54
2023-02-11T09:46:58.338Z,1.56
2023-02-11T09:49:37.187Z,1.58
2023-02-11T09:52:11.571Z,1.62
2023-02-11T09:55:06.226Z,1.70
2023-02-11T09:57:36.989Z,1.76
2023-02-11T10:00:19.857Z,1.76
2023-02-11T10:03:13.225Z,1.74
2023-02-11T10:06:06.921Z,1.69
2023-02-11T10:08:59.819Z,1.68
2023-02-11T10:11:39.717Z,1.69
2023-02-11T10:14:37.012Z,1.73
2023-02-11T10:17:44.231Z,1.80
2023-02-11T10:20:40.432Z,1.97
2023-02-11T10:23:25.014Z,2.08
2023-02-11T10:25:56.475Z,2.23
2023-02-11T10:28:31.183Z,2.35
2023-02-11T10:31:16.284Z,2.47
2023-02-11T10:33:46.873Z,2.49
2023-02-11T10:36:17.706Z,2.46
2023-02-11T10:38:45.612Z,2.47
2023-02-11T10:41:18.272Z,2.49
2023-02-11T10:43:46.172Z,2.46
2023-02-11T10:46:22.283Z,2.51
2023-02-11T10:48:53.461Z,2.56
2023-02-11T10:51:28.683Z,2.61
2023-02-11T10:54:13.325Z,2.67
2023-02-11T10:56:46.103Z,2.70
2023-02-11T10:59:46.292Z,2.62
2023-02-11T11:02:24.550Z,2.68
2023-02-11T11:04:57.896Z,2.74
2023-02-11T11:07:28.781Z,2.80
2023-02-11T11:10:02.758Z,2.94
2023-02-11T11:12:30.733Z,3.18
2023-02-11T11:15:23.709Z,3.42
2023-02-11T11:18:21.431Z,3.49
2023-02-11T11:21:05.812Z,3.48
2023-02-11T11:23:37.975Z,3.46
2023-02-11T11:26:15.169Z,3.37
2023-02-11T11:28:49.194Z,3.21
2023-02-11T11:31:20.825Z,3.03
2023-02-11T11:33:53.026Z,2.90
2023-02-11T11:36:24.831Z,2.74
2023-02-11T11:38:57.806Z,2.61
2023-02-11T11:41:27.565Z,2.54
2023-02-11T11:44:17.850Z,2.50
2023-02-11T11:46:49.414Z,2.52
2023-02-11T11:49:30.130Z,2.56
2023-02-11T11:52:03.712Z,2.53
2023-02-11T11:54:31.951Z,2.49
2023-02-11T11:57:13.304Z,2.45
2023-02-11T11:59:42.056Z,2.41
2023-02-11T12:02:28.836Z,2.40
2023-02-11T12:05:25.512Z,2.38
2023-02-11T12:08:12.351Z,2.33
2023-02-11T12:10:50.478Z,2.30
2023-02-11T12:13:47.479Z,2.26
2023-02-11T12:16:21.621Z,2.21
2023-02-11T12:19:26.971Z,2.20
2023-02-11T12:22:00.625Z,2.20
2023-02-11T12:24:45.918Z,2.20
2023-02-11T12:27:41.889Z,2.26
2023-02-11T12:30:29.217Z,2.34
2023-02-11T12:33:22.965Z,2.33
2023-02-11T12:36:03.246Z,2.31
2023-02-11T12:38:53.017Z,2.30
2023-02-11T12:41:51.493Z,2.25
2023-02-11T12:45:01.218Z,2.20
2023-02-11T12:48:13.037Z,2.08
2023-02-11T12:51:03.180Z,2.00
2023-02-11T12:53:53.928Z,1.92
2023-02-11T12:56:32.524Z,1.90
2023-02-11T12:59:05.414Z,1.93
2023-02-11T13:01:39.842Z,1.89
2023-02-11T13:04:35.380Z,1.85
2023-02-11T13:07:14.077Z,1.85
2023-02-11T13:09:49.312Z,1.85
2023-02-11T13:12:37.149Z,1.84
2023-02-11T13:15:13.175Z,1.79
2023-02-11T13:17:52.392Z,1.77
2023-02-11T13:20:25.640Z,1.78
2023-02-11T13:23:17.452Z,1.78
2023-02-11T13:26:13.393Z,1.75
2023-02-11T13:29:12.335Z,1.73
2023-02-11T13:31:40.287Z,1.77
2023-02-11T13:34:25.993Z,1.79
2023-02-11T13:36:56.007Z,1.79
2023-02-11T13:39:24.839Z,1.78
2023-02-11T13:42:03.396Z,1.79
2023-02-11T13:44:35.007Z,1.80
2023-02-11T13:47:08.159Z,1.85
2023-02-11T13:49:50.806Z,1.83
2023-02-11T13:52:22.278Z,1.84
2023-02-11T13:54:53.553Z,1.77
2023-02-11T13:57:29.669Z,1.71
2023-02-11T14:00:09.133Z,1.69
2023-02-11T14:02:55.990Z,1.65
2023-02-11T14:05:49.933Z,1.65
2023-02-11T14:08:39.833Z,1.67
2023-02-11T14:11:12.500Z,1.73
2023-02-11T14:13:49.472Z,1.73
2023-02-11T14:16:36.982Z,1.71
2023-02-11T14:19:06.878Z,1.71
2023-02-11T14:21:38.537Z,1.72
2023-02-11T14:24:07.253Z,1.73
2023-02-11T14:26:42.667Z,1.72
2023-02-11T14:29:20.202Z,1.70
2023-02-11T14:32:25.134Z,1.69
2023-02-11T14:35:20.713Z,1.72
2023-02-11T14:37:51.754Z,1.73
2023-02-11T14:40:41.229Z,1.71
2023-02-11T14:43:16.992Z,1.65
2023-02-11T14:45:59.949Z,1.58
2023-02-11T14:48:31.646Z,1.47
2023-02-11T14:51:18.237Z,1.30
2023-02-11T14:53:52.251Z,1.25
2023-02-11T14:56:32.820Z,1.19
2023-02-11T14:59:02.862Z,1.14
2023-02-11T15:01:34.031Z,1.08
2023-02-11T15:04:04.705Z,1.02
2023-02-11T15:06:37.321Z,0.99
2023-02-11T15:09:16.291Z,0.93
2023-02-11T15:11:46.921Z,0.87
2023-02-11T15:14:35.105Z,0.80
2023-02-11T15:17:08.118Z,0.76
2023-02-11T15:19:46.787Z,0.74
2023-02-11T15:22:24.924Z,0.74
2023-02-11T15:25:16.787Z,0.75
2023-02-11T15:27:50.753Z,0.69
2023-02-11T15:30:21.792Z,0.65
2023-02-11T15:33:00.530Z,0.67
2023-02-11T15:35:41.083Z,0.68
2023-02-11T15:38:13.064Z,0.69
2023-02-11T15:40:41.070Z,0.65
2023-02-11T15:43:10.775Z,0.65
2023-02-11T15:45:56.558Z,0.61
2023-02-11T15:48:56.419Z,0.62
2023-02-11T15:51:31.672Z,0.57
2023-02-11T15:54:07.081Z,0.55
2023-02-11T15:56:42.242Z,0.55
2023-02-11T15:59:15.967Z,0.55
2023-02-11T16:01:45.873Z,0.55
2023-02-11T16:04:49.120Z,0.54
2023-02-11T16:07:47.769Z,0.49
2023-02-11T16:10:18.310Z,0.48
2023-02-11T16:13:12.304Z,0.46
2023-02-11T16:15:58.607Z,0.49
2023-02-11T16:18:38.127Z,0.49
2023-02-11T16:21:17.903Z,0.49
2023-02-11T16:23:55.025Z,0.49
2023-02-11T16:26:36.639Z,0.47
2023-02-11T16:29:08.071Z,0.51
2023-02-11T16:31:42.410Z,0.49
2023-02-11T16:34:19.421Z,0.48
2023-02-11T16:36:48.825Z,0.51
2023-02-11T16:39:18.190Z,0.48
2023-02-11T16:41:46.079Z,0.45
2023-02-11T16:44:14.046Z,0.44
2023-02-11T16:46:42.090Z,0.46
2023-02-11T16:49:16.707Z,0.46
2023-02-11T16:51:49.439Z,0.48
2023-02-11T16:54:19.728Z,0.45
2023-02-11T16:57:23.135Z,0.50
2023-02-11T16:59:52.539Z,0.48
2023-02-11T17:02:27.580Z,0.51
2023-02-11T17:04:59.023Z,0.52
2023-02-11T17:07:27.830Z,0.55
2023-02-11T17:09:56.719Z,0.54
2023-02-11T17:12:27.571Z,0.53
2023-02-11T17:14:55.559Z,0.54
2023-02-11T17:17:24.019Z,0.54
2023-02-11T17:19:52.037Z,0.52
2023-02-11T17:22:19.942Z,0.50
2023-02-11T17:24:48.734Z,0.52
2023-02-11T17:27:17.638Z,0.52
2023-02-11T17:29:46.738Z,0.52
2023-02-11T17:32:14.760Z,0.51
2023-02-11T17:34:43.065Z,0.52
2023-02-11T17:37:11.230Z,0.53
2023-02-11T17:39:40.382Z,0.58
2023-02-11T17:42:08.901Z,0.59
2023-02-11T17:44:37.359Z,0.56
2023-02-11T17:47:05.484Z,0.60
2023-02-11T17:49:33.482Z,0.65
2023-02-11T17:52:01.415Z,0.68
2023-02-11T17:54:29.316Z,0.70
2023-02-11T17:56:58.558Z,0.70
2023-02-11T17:59:28.575Z,0.72
2023-02-11T18:01:56.645Z,0.75
2023-02-11T18:04:24.576Z,0.76
2023-02-11T18:06:53.704Z,0.79
2023-02-11T18:09:21.812Z,0.79
2023-02-11T18:11:53.183Z,0.77
2023-02-11T18:14:24.138Z,0.79
2023-02-11T18:16:53.167Z,0.81
2023-02-11T18:19:21.750Z,0.83
2023-02-11T18:21:55.505Z,0.86
2023-02-11T18:24:23.939Z,0.88
2023-02-11T18:26:52.340Z,0.98
2023-02-11T18:29:20.569Z,1.05
2023-02-11T18:31:54.936Z,1.03
2023-02-11T18:34:23.558Z,1.01
2023-02-11T18:36:55.680Z,0.98
2023-02-11T18:39:24.614Z,0.94
2023-02-11T18:41:56.960Z,0.93
2023-02-11T18:44:27.212Z,0.96
2023-02-11T18:46:55.297Z,0.98
2023-02-11T18:49:23.282Z,0.99
2023-02-11T18:51:51.319Z,1.00
2023-02-11T18:54:19.804Z,1.02
2023-02-11T18:56:48.226Z,1.02
2023-02-11T18:59:16.751Z,1.02
2023-02-11T19:01:47.113Z,1.04
2023-02-11T19:04:20.057Z,1.05
2023-02-11T19:06:52.372Z,1.09
2023-02-11T19:09:20.883Z,1.07
2023-02-11T19:11:54.310Z,1.07
2023-02-11T19:14:25.696Z,1.08
2023-02-11T19:16:57.979Z,1.10
2023-02-11T19:19:29.792Z,1.12
2023-02-11T19:21:59.913Z,1.14
2023-02-11T19:24:29.254Z,1.18
2023-02-11T19:26:59.766Z,1.19
2023-02-11T19:29:29.789Z,1.17
2023-02-11T19:31:57.869Z,1.16
2023-02-11T19:34:25.788Z,1.18
2023-02-11T19:36:54.533Z,1.19
2023-02-11T19:39:24.909Z,1.20
2023-02-11T19:41:53.183Z,1.20
2023-02-11T19:44:21.104Z,1.19
2023-02-11T19:46:50.391Z,1.21
2023-02-11T19:49:26.867Z,1.22
2023-02-11T19:51:58.424Z,1.25
2023-02-11T19:54:29.171Z,1.26
2023-02-11T19:56:58.128Z,1.27
2023-02-11T19:59:26.811Z,1.27
2023-02-11T20:01:54.905Z,1.49
2023-02-11T20:04:25.171Z,1.50
2023-02-11T20:06:53.501Z,1.47
2023-02-11T20:09:22.862Z,1.45
2023-02-11T20:11:50.936Z,1.43
2023-02-11T20:14:21.512Z,1.44
2023-02-11T20:16:50.465Z,1.43
2023-02-11T20:19:21.671Z,1.43
2023-02-11T20:21:53.065Z,1.43
2023-02-11T20:24:21.911Z,1.44
2023-02-11T20:26:51.797Z,1.43
2023-02-11T20:29:19.853Z,1.41
2023-02-11T20:31:50.150Z,1.40
2023-02-11T20:34:18.402Z,1.42
2023-02-11T20:36:52.394Z,1.42
2023-02-11T20:39:24.901Z,1.45
2023-02-11T20:41:54.059Z,1.45
2023-02-11T20:44:22.881Z,1.44
2023-02-11T20:46:54.093Z,1.43
2023-02-11T20:49:24.153Z,1.43
2023-02-11T20:51:54.111Z,1.43
2023-02-11T20:54:23.723Z,1.47
2023-02-11T20:56:53.980Z,1.48
2023-02-11T20:59:23.178Z,1.45
2023-02-11T21:01:56.271Z,1.42
2023-02-11T21:04:30.919Z,1.42
2023-02-11T21:07:01.212Z,1.42
2023-02-11T21:09:32.049Z,1.44
2023-02-11T21:12:00.680Z,1.47
2023-02-11T21:14:29.323Z,1.47
2023-02-11T21:16:58.182Z,1.46
2023-02-11T21:19:27.206Z,1.45
2023-02-11T21:21:57.377Z,1.48
2023-02-11T21:24:25.531Z,1.49
2023-02-11T21:26:53.683Z,1.51
2023-02-11T21:29:22.217Z,1.49
2023-02-11T21:31:51.540Z,1.48
2023-02-11T21:34:20.794Z,1.49
2023-02-11T21:36:51.264Z,1.50
2023-02-11T21:39:20.395Z,1.52
2023-02-11T21:41:48.455Z,1.54
2023-02-11T21:44:16.543Z,1.56
2023-02-11T21:46:45.082Z,1.56
2023-02-11T21:49:13.187Z,1.56
2023-02-11T21:51:41.168Z,1.57
2023-02-11T21:54:11.212Z,1.57
2023-02-11T21:56:39.090Z,1.58
2023-02-11T21:59:07.489Z,1.61
2023-02-11T22:01:35.984Z,1.59
2023-02-11T22:04:04.684Z,1.58
2023-02-11T22:06:35.162Z,1.58
2023-02-11T22:09:06.616Z,1.60
2023-02-11T22:11:34.664Z,1.63
2023-02-11T22:14:02.842Z,1.66
2023-02-11T22:16:31.472Z,1.66
2023-02-11T22:19:00.921Z,1.64
2023-02-11T22:21:30.153Z,1.65
2023-02-11T22:23:58.601Z,1.68
2023-02-11T22:26:28.067Z,1.70
2023-02-11T22:28:56.450Z,1.70
2023-02-11T22:31:31.476Z,1.69
2023-02-11T22:34:00.452Z,1.71
2023-02-11T22:36:35.158Z,1.74
2023-02-11T22:39:09.425Z,1.78
2023-02-11T22:41:40.855Z,1.83
2023-02-11T22:44:09.301Z,1.85
2023-02-11T22:46:38.125Z,1.84
2023-02-11T22:49:07.493Z,1.87
2023-02-11T22:51:35.384Z,1.89
2023-02-11T22:54:06.167Z,1.92
2023-02-11T22:56:35.199Z,1.93
2023-02-11T22:59:06.385Z,1.95
2023-02-11T23:01:35.355Z,1.96
2023-02-11T23:04:05.782Z,2.22
2023-02-11T23:06:34.632Z,2.35
2023-02-11T23:09:10.412Z,2.56
2023-02-11T23:11:39.254Z,2.84
2023-02-11T23:14:08.878Z,3.08
2023-02-11T23:16:36.873Z,3.01
2023-02-11T23:19:08.657Z,2.84
2023-02-11T23:21:38.782Z,2.66
2023-02-11T23:24:15.995Z,2.54
2023-02-11T23:26:44.509Z,2.43
2023-02-11T23:29:12.454Z,2.36
2023-02-11T23:31:45.277Z,2.32
2023-02-11T23:34:18.564Z,2.27
2023-02-11T23:36:46.579Z,2.24
2023-02-11T23:39:15.931Z,2.20
2023-02-11T23:41:45.072Z,2.17
2023-02-11T23:44:13.171Z,2.17
2023-02-11T23:46:41.125Z,2.18
2023-02-11T23:49:09.089Z,2.18
2023-02-11T23:51:36.989Z,2.20
2023-02-11T23:54:04.938Z,2.25
2023-02-11T23:56:33.054Z,2.27
2023-02-11T23:59:00.942Z,2.28
